Аэропорт: Кольцово. Екатеринбург

ICAO: USSS

METAR:
2020-10-24 06:00:00
USSS 240600Z 14005MPS 5000 -SHSN FEW011 BKN031CB M03/M05 Q1009 RESHSN R08L/490137 NOSIG RMK QFE737/0982
METAR:
2020-10-24 04:58:00
TAF USSS 240458Z 2406/2506 15006G17MPS 2100 -SHSNRA BKN007 SCT020CB TEMPO 2406/2416 0900 +SHSN FZRA VV004 FM241800 26003G10MPS 6000 -SHRASN BKN011 SCT016CB